sensor_id;sensor_type;location;lat;lon;timestamp;P1;durP1;ratioP1;P2;durP2;ratioP2
6785;SDS011;3430;51.192;6.048;2023-03-04T00:01:51;10.97;;;6.30;;
6785;SDS011;3430;51.192;6.048;2023-03-04T00:04:17;9.07;;;5.67;;
6785;SDS011;3430;51.192;6.048;2023-03-04T00:06:42;8.73;;;6.07;;
6785;SDS011;3430;51.192;6.048;2023-03-04T00:09:07;8.53;;;5.47;;
6785;SDS011;3430;51.192;6.048;2023-03-04T00:11:33;7.97;;;5.63;;
6785;SDS011;3430;51.192;6.048;2023-03-04T00:13:58;7.50;;;5.30;;
6785;SDS011;3430;51.192;6.048;2023-03-04T00:16:24;10.93;;;5.57;;
6785;SDS011;3430;51.192;6.048;2023-03-04T00:18:53;8.87;;;5.43;;
6785;SDS011;3430;51.192;6.048;2023-03-04T00:21:18;9.57;;;4.97;;
6785;SDS011;3430;51.192;6.048;2023-03-04T00:23:43;9.43;;;5.60;;
6785;SDS011;3430;51.192;6.048;2023-03-04T00:26:09;8.93;;;6.03;;
6785;SDS011;3430;51.192;6.048;2023-03-04T00:28:34;11.10;;;6.03;;
6785;SDS011;3430;51.192;6.048;2023-03-04T00:31:00;7.53;;;5.10;;
6785;SDS011;3430;51.192;6.048;2023-03-04T00:33:25;6.13;;;4.97;;
6785;SDS011;3430;51.192;6.048;2023-03-04T00:35:50;6.67;;;4.90;;
6785;SDS011;3430;51.192;6.048;2023-03-04T00:38:16;9.33;;;5.30;;
6785;SDS011;3430;51.192;6.048;2023-03-04T00:40:41;6.97;;;4.77;;
6785;SDS011;3430;51.192;6.048;2023-03-04T00:43:06;7.70;;;4.90;;
6785;SDS011;3430;51.192;6.048;2023-03-04T00:45:32;6.63;;;4.83;;
6785;SDS011;3430;51.192;6.048;2023-03-04T00:47:57;6.07;;;4.57;;
6785;SDS011;3430;51.192;6.048;2023-03-04T00:50:22;10.00;;;5.27;;
6785;SDS011;3430;51.192;6.048;2023-03-04T00:52:47;7.03;;;5.10;;
6785;SDS011;3430;51.192;6.048;2023-03-04T00:55:13;7.67;;;5.27;;
6785;SDS011;3430;51.192;6.048;2023-03-04T00:57:38;5.00;;;4.37;;
6785;SDS011;3430;51.192;6.048;2023-03-04T01:00:03;10.03;;;4.70;;
6785;SDS011;3430;51.192;6.048;2023-03-04T01:02:29;6.40;;;4.40;;
6785;SDS011;3430;51.192;6.048;2023-03-04T01:04:54;7.10;;;4.40;;
6785;SDS011;3430;51.192;6.048;2023-03-04T01:07:19;7.33;;;4.50;;
6785;SDS011;3430;51.192;6.048;2023-03-04T01:09:45;6.30;;;4.83;;
6785;SDS011;3430;51.192;6.048;2023-03-04T01:12:10;7.53;;;4.67;;
6785;SDS011;3430;51.192;6.048;2023-03-04T01:14:35;8.17;;;4.53;;
6785;SDS011;3430;51.192;6.048;2023-03-04T01:17:01;5.70;;;4.43;;
6785;SDS011;3430;51.192;6.048;2023-03-04T01:19:26;11.00;;;4.30;;
6785;SDS011;3430;51.192;6.048;2023-03-04T01:21:51;6.87;;;4.17;;
6785;SDS011;3430;51.192;6.048;2023-03-04T01:24:17;8.83;;;4.50;;
6785;SDS011;3430;51.192;6.048;2023-03-04T01:26:42;6.87;;;4.43;;
6785;SDS011;3430;51.192;6.048;2023-03-04T01:29:08;9.10;;;4.60;;
6785;SDS011;3430;51.192;6.048;2023-03-04T01:31:33;6.77;;;4.70;;
6785;SDS011;3430;51.192;6.048;2023-03-04T01:33:58;5.77;;;4.27;;
6785;SDS011;3430;51.192;6.048;2023-03-04T01:36:24;6.07;;;4.37;;
6785;SDS011;3430;51.192;6.048;2023-03-04T01:38:49;8.63;;;4.37;;
6785;SDS011;3430;51.192;6.048;2023-03-04T01:41:15;7.03;;;4.57;;
6785;SDS011;3430;51.192;6.048;2023-03-04T01:43:41;4.93;;;3.70;;
6785;SDS011;3430;51.192;6.048;2023-03-04T01:46:08;7.57;;;4.77;;
6785;SDS011;3430;51.192;6.048;2023-03-04T01:48:34;7.20;;;4.23;;
6785;SDS011;3430;51.192;6.048;2023-03-04T01:51:01;7.80;;;4.63;;
6785;SDS011;3430;51.192;6.048;2023-03-04T01:53:27;8.10;;;4.13;;
6785;SDS011;3430;51.192;6.048;2023-03-04T01:55:56;7.77;;;4.27;;
6785;SDS011;3430;51.192;6.048;2023-03-04T01:58:24;6.70;;;4.60;;
6785;SDS011;3430;51.192;6.048;2023-03-04T02:00:50;6.30;;;3.60;;
6785;SDS011;3430;51.192;6.048;2023-03-04T02:03:16;8.23;;;5.00;;
6785;SDS011;3430;51.192;6.048;2023-03-04T02:05:44;7.03;;;3.83;;
6785;SDS011;3430;51.192;6.048;2023-03-04T02:08:10;4.73;;;3.83;;
6785;SDS011;3430;51.192;6.048;2023-03-04T02:10:36;9.03;;;4.07;;
6785;SDS011;3430;51.192;6.048;2023-03-04T02:13:02;6.23;;;4.27;;
6785;SDS011;3430;51.192;6.048;2023-03-04T02:15:28;3.67;;;3.13;;
6785;SDS011;3430;51.192;6.048;2023-03-04T02:17:53;5.30;;;4.07;;
6785;SDS011;3430;51.192;6.048;2023-03-04T02:22:50;5.67;;;4.00;;
6785;SDS011;3430;51.192;6.048;2023-03-04T02:25:20;6.80;;;3.93;;
6785;SDS011;3430;51.192;6.048;2023-03-04T02:27:46;4.70;;;3.57;;
6785;SDS011;3430;51.192;6.048;2023-03-04T02:30:11;8.03;;;3.73;;
6785;SDS011;3430;51.192;6.048;2023-03-04T02:32:37;7.83;;;3.90;;
6785;SDS011;3430;51.192;6.048;2023-03-04T02:35:02;4.40;;;3.10;;
6785;SDS011;3430;51.192;6.048;2023-03-04T02:37:28;5.43;;;3.93;;
6785;SDS011;3430;51.192;6.048;2023-03-04T02:39:53;6.07;;;3.87;;
6785;SDS011;3430;51.192;6.048;2023-03-04T02:42:18;7.27;;;3.93;;
6785;SDS011;3430;51.192;6.048;2023-03-04T02:44:44;5.60;;;3.60;;
6785;SDS011;3430;51.192;6.048;2023-03-04T02:47:13;4.03;;;3.50;;
6785;SDS011;3430;51.192;6.048;2023-03-04T02:49:39;8.13;;;4.07;;
6785;SDS011;3430;51.192;6.048;2023-03-04T02:54:30;4.90;;;3.30;;
6785;SDS011;3430;51.192;6.048;2023-03-04T02:56:57;3.90;;;3.07;;
6785;SDS011;3430;51.192;6.048;2023-03-04T02:59:23;11.83;;;3.97;;
6785;SDS011;3430;51.192;6.048;2023-03-04T03:01:48;7.37;;;3.87;;
6785;SDS011;3430;51.192;6.048;2023-03-04T03:04:14;4.73;;;3.30;;
6785;SDS011;3430;51.192;6.048;2023-03-04T03:06:39;4.60;;;3.73;;
6785;SDS011;3430;51.192;6.048;2023-03-04T03:09:05;6.93;;;3.87;;
6785;SDS011;3430;51.192;6.048;2023-03-04T03:11:31;3.43;;;3.13;;
6785;SDS011;3430;51.192;6.048;2023-03-04T03:13:56;5.23;;;2.83;;
6785;SDS011;3430;51.192;6.048;2023-03-04T03:16:22;5.53;;;3.40;;
6785;SDS011;3430;51.192;6.048;2023-03-04T03:18:48;6.27;;;3.80;;
6785;SDS011;3430;51.192;6.048;2023-03-04T03:21:13;4.33;;;3.40;;
6785;SDS011;3430;51.192;6.048;2023-03-04T03:23:39;4.60;;;3.57;;
6785;SDS011;3430;51.192;6.048;2023-03-04T03:26:04;4.67;;;3.13;;
6785;SDS011;3430;51.192;6.048;2023-03-04T03:28:30;8.83;;;3.40;;
6785;SDS011;3430;51.192;6.048;2023-03-04T03:30:55;7.27;;;3.27;;
6785;SDS011;3430;51.192;6.048;2023-03-04T03:33:21;5.67;;;3.17;;
6785;SDS011;3430;51.192;6.048;2023-03-04T03:35:46;5.67;;;3.37;;
6785;SDS011;3430;51.192;6.048;2023-03-04T03:38:15;5.00;;;3.40;;
6785;SDS011;3430;51.192;6.048;2023-03-04T03:40:40;5.80;;;3.33;;
6785;SDS011;3430;51.192;6.048;2023-03-04T03:43:06;4.77;;;3.20;;
6785;SDS011;3430;51.192;6.048;2023-03-04T03:45:31;7.60;;;3.30;;
6785;SDS011;3430;51.192;6.048;2023-03-04T03:47:57;5.73;;;3.10;;
6785;SDS011;3430;51.192;6.048;2023-03-04T03:50:22;4.00;;;3.53;;
6785;SDS011;3430;51.192;6.048;2023-03-04T03:52:47;8.10;;;3.30;;
6785;SDS011;3430;51.192;6.048;2023-03-04T03:55:13;5.10;;;3.73;;
6785;SDS011;3430;51.192;6.048;2023-03-04T03:57:38;4.13;;;3.40;;
6785;SDS011;3430;51.192;6.048;2023-03-04T04:00:04;4.53;;;3.47;;
6785;SDS011;3430;51.192;6.048;2023-03-04T04:02:30;5.57;;;3.83;;
6785;SDS011;3430;51.192;6.048;2023-03-04T04:04:55;4.13;;;3.13;;
6785;SDS011;3430;51.192;6.048;2023-03-04T04:07:20;4.67;;;3.53;;
6785;SDS011;3430;51.192;6.048;2023-03-04T04:09:45;4.40;;;3.00;;
6785;SDS011;3430;51.192;6.048;2023-03-04T04:12:12;3.43;;;2.97;;
6785;SDS011;3430;51.192;6.048;2023-03-04T04:14:38;4.40;;;3.00;;
6785;SDS011;3430;51.192;6.048;2023-03-04T04:17:04;4.77;;;2.93;;
6785;SDS011;3430;51.192;6.048;2023-03-04T04:19:29;6.40;;;3.20;;
6785;SDS011;3430;51.192;6.048;2023-03-04T04:21:54;2.93;;;2.67;;
6785;SDS011;3430;51.192;6.048;2023-03-04T04:24:20;5.70;;;2.77;;
6785;SDS011;3430;51.192;6.048;2023-03-04T04:26:45;3.83;;;2.97;;
6785;SDS011;3430;51.192;6.048;2023-03-04T04:29:12;7.03;;;3.40;;
6785;SDS011;3430;51.192;6.048;2023-03-04T04:31:37;5.70;;;2.77;;
6785;SDS011;3430;51.192;6.048;2023-03-04T04:34:03;3.57;;;2.97;;
6785;SDS011;3430;51.192;6.048;2023-03-04T04:36:28;4.20;;;3.00;;
6785;SDS011;3430;51.192;6.048;2023-03-04T04:38:54;8.77;;;3.83;;
6785;SDS011;3430;51.192;6.048;2023-03-04T04:41:20;4.13;;;2.97;;
6785;SDS011;3430;51.192;6.048;2023-03-04T04:43:46;6.87;;;3.90;;
6785;SDS011;3430;51.192;6.048;2023-03-04T04:46:11;6.03;;;3.47;;
6785;SDS011;3430;51.192;6.048;2023-03-04T04:48:36;4.33;;;2.80;;
6785;SDS011;3430;51.192;6.048;2023-03-04T04:51:02;6.47;;;3.47;;
6785;SDS011;3430;51.192;6.048;2023-03-04T04:53:27;3.03;;;2.60;;
6785;SDS011;3430;51.192;6.048;2023-03-04T04:55:52;5.80;;;3.10;;
6785;SDS011;3430;51.192;6.048;2023-03-04T04:58:18;4.93;;;3.17;;
6785;SDS011;3430;51.192;6.048;2023-03-04T05:00:43;5.23;;;2.90;;
6785;SDS011;3430;51.192;6.048;2023-03-04T05:03:08;7.53;;;3.30;;
6785;SDS011;3430;51.192;6.048;2023-03-04T05:05:34;5.13;;;3.20;;
6785;SDS011;3430;51.192;6.048;2023-03-04T05:07:59;5.83;;;3.37;;
6785;SDS011;3430;51.192;6.048;2023-03-04T05:10:24;3.97;;;2.83;;
6785;SDS011;3430;51.192;6.048;2023-03-04T05:12:50;4.73;;;2.40;;
6785;SDS011;3430;51.192;6.048;2023-03-04T05:15:15;6.03;;;3.27;;
6785;SDS011;3430;51.192;6.048;2023-03-04T05:17:40;3.57;;;2.47;;
6785;SDS011;3430;51.192;6.048;2023-03-04T05:20:06;4.67;;;2.87;;
6785;SDS011;3430;51.192;6.048;2023-03-04T05:22:31;3.70;;;2.90;;
6785;SDS011;3430;51.192;6.048;2023-03-04T05:24:57;3.50;;;2.70;;
6785;SDS011;3430;51.192;6.048;2023-03-04T05:27:22;6.37;;;3.70;;
6785;SDS011;3430;51.192;6.048;2023-03-04T05:29:47;3.20;;;2.87;;
6785;SDS011;3430;51.192;6.048;2023-03-04T05:32:13;4.47;;;3.47;;
6785;SDS011;3430;51.192;6.048;2023-03-04T05:34:38;3.13;;;2.83;;
6785;SDS011;3430;51.192;6.048;2023-03-04T05:37:04;7.83;;;3.00;;
6785;SDS011;3430;51.192;6.048;2023-03-04T05:39:29;5.20;;;2.83;;
6785;SDS011;3430;51.192;6.048;2023-03-04T05:41:54;4.50;;;2.87;;
6785;SDS011;3430;51.192;6.048;2023-03-04T05:44:20;2.77;;;2.57;;
6785;SDS011;3430;51.192;6.048;2023-03-04T05:46:45;4.17;;;3.17;;
6785;SDS011;3430;51.192;6.048;2023-03-04T05:49:10;3.97;;;3.07;;
6785;SDS011;3430;51.192;6.048;2023-03-04T05:51:36;4.30;;;2.80;;
6785;SDS011;3430;51.192;6.048;2023-03-04T05:54:01;3.40;;;2.97;;
6785;SDS011;3430;51.192;6.048;2023-03-04T05:56:27;2.67;;;2.47;;
6785;SDS011;3430;51.192;6.048;2023-03-04T05:58:55;6.40;;;2.60;;
6785;SDS011;3430;51.192;6.048;2023-03-04T06:01:21;5.73;;;3.30;;
6785;SDS011;3430;51.192;6.048;2023-03-04T06:03:46;6.37;;;2.87;;
6785;SDS011;3430;51.192;6.048;2023-03-04T06:06:13;4.63;;;3.13;;
6785;SDS011;3430;51.192;6.048;2023-03-04T06:08:38;4.10;;;2.30;;
6785;SDS011;3430;51.192;6.048;2023-03-04T06:11:04;4.53;;;2.90;;
6785;SDS011;3430;51.192;6.048;2023-03-04T06:13:33;3.47;;;2.53;;
6785;SDS011;3430;51.192;6.048;2023-03-04T06:15:58;5.60;;;3.40;;
6785;SDS011;3430;51.192;6.048;2023-03-04T06:18:24;5.63;;;2.50;;
6785;SDS011;3430;51.192;6.048;2023-03-04T06:20:50;4.93;;;3.37;;
6785;SDS011;3430;51.192;6.048;2023-03-04T06:23:15;3.97;;;2.70;;
6785;SDS011;3430;51.192;6.048;2023-03-04T06:25:41;5.13;;;3.27;;
6785;SDS011;3430;51.192;6.048;2023-03-04T06:28:07;4.60;;;2.80;;
6785;SDS011;3430;51.192;6.048;2023-03-04T06:30:33;2.50;;;2.30;;
6785;SDS011;3430;51.192;6.048;2023-03-04T06:32:59;4.80;;;2.40;;
6785;SDS011;3430;51.192;6.048;2023-03-04T06:35:24;5.70;;;2.93;;
6785;SDS011;3430;51.192;6.048;2023-03-04T06:37:49;2.83;;;2.23;;
6785;SDS011;3430;51.192;6.048;2023-03-04T06:40:15;2.93;;;2.67;;
6785;SDS011;3430;51.192;6.048;2023-03-04T06:42:40;6.10;;;2.57;;
6785;SDS011;3430;51.192;6.048;2023-03-04T06:45:06;5.10;;;2.83;;
6785;SDS011;3430;51.192;6.048;2023-03-04T06:47:32;4.00;;;3.00;;
6785;SDS011;3430;51.192;6.048;2023-03-04T06:49:58;6.50;;;2.83;;
6785;SDS011;3430;51.192;6.048;2023-03-04T06:52:23;3.13;;;2.27;;
6785;SDS011;3430;51.192;6.048;2023-03-04T06:54:48;2.50;;;2.30;;
6785;SDS011;3430;51.192;6.048;2023-03-04T06:57:14;2.97;;;2.67;;
6785;SDS011;3430;51.192;6.048;2023-03-04T06:59:39;3.97;;;2.90;;
6785;SDS011;3430;51.192;6.048;2023-03-04T07:02:05;4.83;;;2.63;;
6785;SDS011;3430;51.192;6.048;2023-03-04T07:04:30;2.97;;;2.67;;
6785;SDS011;3430;51.192;6.048;2023-03-04T07:06:55;3.73;;;2.80;;
6785;SDS011;3430;51.192;6.048;2023-03-04T07:09:21;4.77;;;2.23;;
6785;SDS011;3430;51.192;6.048;2023-03-04T07:11:46;4.70;;;2.50;;
6785;SDS011;3430;51.192;6.048;2023-03-04T07:14:11;3.07;;;2.83;;
6785;SDS011;3430;51.192;6.048;2023-03-04T07:16:37;3.53;;;2.27;;
6785;SDS011;3430;51.192;6.048;2023-03-04T07:19:02;3.27;;;2.50;;
6785;SDS011;3430;51.192;6.048;2023-03-04T07:21:27;4.83;;;2.63;;
6785;SDS011;3430;51.192;6.048;2023-03-04T07:23:53;2.97;;;2.10;;
6785;SDS011;3430;51.192;6.048;2023-03-04T07:26:18;5.57;;;2.43;;
6785;SDS011;3430;51.192;6.048;2023-03-04T07:28:43;3.13;;;2.80;;
6785;SDS011;3430;51.192;6.048;2023-03-04T07:33:34;3.80;;;2.50;;
6785;SDS011;3430;51.192;6.048;2023-03-04T07:36:00;5.53;;;2.53;;
6785;SDS011;3430;51.192;6.048;2023-03-04T07:38:25;4.60;;;2.30;;
6785;SDS011;3430;51.192;6.048;2023-03-04T07:40:55;5.20;;;2.53;;
6785;SDS011;3430;51.192;6.048;2023-03-04T07:43:20;4.23;;;2.97;;
6785;SDS011;3430;51.192;6.048;2023-03-04T07:45:46;4.93;;;2.80;;
6785;SDS011;3430;51.192;6.048;2023-03-04T07:48:11;5.33;;;2.63;;
6785;SDS011;3430;51.192;6.048;2023-03-04T07:50:36;5.23;;;2.43;;
6785;SDS011;3430;51.192;6.048;2023-03-04T07:53:02;4.30;;;2.83;;
6785;SDS011;3430;51.192;6.048;2023-03-04T07:55:27;3.53;;;2.30;;
6785;SDS011;3430;51.192;6.048;2023-03-04T07:57:54;3.37;;;2.87;;
6785;SDS011;3430;51.192;6.048;2023-03-04T08:00:20;3.43;;;3.17;;
6785;SDS011;3430;51.192;6.048;2023-03-04T08:02:45;3.43;;;2.60;;
6785;SDS011;3430;51.192;6.048;2023-03-04T08:05:10;4.40;;;2.60;;
6785;SDS011;3430;51.192;6.048;2023-03-04T08:07:36;3.20;;;2.57;;
6785;SDS011;3430;51.192;6.048;2023-03-04T08:10:01;3.77;;;3.03;;
6785;SDS011;3430;51.192;6.048;2023-03-04T08:12:27;5.00;;;2.20;;
6785;SDS011;3430;51.192;6.048;2023-03-04T08:14:53;3.37;;;2.30;;
6785;SDS011;3430;51.192;6.048;2023-03-04T08:17:19;4.37;;;2.47;;
6785;SDS011;3430;51.192;6.048;2023-03-04T08:19:44;2.77;;;2.37;;
6785;SDS011;3430;51.192;6.048;2023-03-04T08:22:10;4.00;;;2.50;;
6785;SDS011;3430;51.192;6.048;2023-03-04T08:24:35;3.93;;;2.30;;
6785;SDS011;3430;51.192;6.048;2023-03-04T08:27:01;2.83;;;2.23;;
6785;SDS011;3430;51.192;6.048;2023-03-04T08:29:26;2.80;;;2.50;;
6785;SDS011;3430;51.192;6.048;2023-03-04T08:31:52;2.87;;;2.57;;
6785;SDS011;3430;51.192;6.048;2023-03-04T08:34:19;5.43;;;2.57;;
6785;SDS011;3430;51.192;6.048;2023-03-04T08:36:46;5.07;;;2.70;;
6785;SDS011;3430;51.192;6.048;2023-03-04T08:39:12;5.40;;;2.93;;
6785;SDS011;3430;51.192;6.048;2023-03-04T08:41:37;2.90;;;2.70;;
6785;SDS011;3430;51.192;6.048;2023-03-04T08:44:03;4.30;;;2.50;;
6785;SDS011;3430;51.192;6.048;2023-03-04T08:46:28;3.33;;;2.10;;
6785;SDS011;3430;51.192;6.048;2023-03-04T08:48:53;3.53;;;2.53;;
6785;SDS011;3430;51.192;6.048;2023-03-04T08:51:19;2.33;;;2.13;;
6785;SDS011;3430;51.192;6.048;2023-03-04T08:53:44;4.13;;;2.77;;
6785;SDS011;3430;51.192;6.048;2023-03-04T08:56:10;2.27;;;2.13;;
6785;SDS011;3430;51.192;6.048;2023-03-04T08:58:36;2.40;;;2.20;;
6785;SDS011;3430;51.192;6.048;2023-03-04T09:01:02;2.90;;;2.53;;
6785;SDS011;3430;51.192;6.048;2023-03-04T09:03:27;2.50;;;2.30;;
6785;SDS011;3430;51.192;6.048;2023-03-04T09:05:52;5.73;;;2.50;;
6785;SDS011;3430;51.192;6.048;2023-03-04T09:08:18;4.63;;;2.70;;
6785;SDS011;3430;51.192;6.048;2023-03-04T09:10:43;4.10;;;2.10;;
6785;SDS011;3430;51.192;6.048;2023-03-04T09:13:09;5.73;;;2.23;;
6785;SDS011;3430;51.192;6.048;2023-03-04T09:15:47;4.37;;;2.30;;
6785;SDS011;3430;51.192;6.048;2023-03-04T09:18:12;3.57;;;2.23;;
6785;SDS011;3430;51.192;6.048;2023-03-04T09:20:38;3.23;;;2.67;;
6785;SDS011;3430;51.192;6.048;2023-03-04T09:23:03;2.40;;;2.20;;
6785;SDS011;3430;51.192;6.048;2023-03-04T09:25:28;2.83;;;2.37;;
6785;SDS011;3430;51.192;6.048;2023-03-04T09:27:54;2.43;;;2.17;;
6785;SDS011;3430;51.192;6.048;2023-03-04T09:30:19;3.40;;;2.40;;
6785;SDS011;3430;51.192;6.048;2023-03-04T09:32:45;4.60;;;2.80;;
6785;SDS011;3430;51.192;6.048;2023-03-04T09:35:10;3.60;;;2.40;;
6785;SDS011;3430;51.192;6.048;2023-03-04T09:37:35;3.63;;;2.60;;
6785;SDS011;3430;51.192;6.048;2023-03-04T09:40:01;5.03;;;2.47;;
6785;SDS011;3430;51.192;6.048;2023-03-04T09:42:37;3.00;;;2.47;;
6785;SDS011;3430;51.192;6.048;2023-03-04T09:45:06;7.17;;;2.30;;
6785;SDS011;3430;51.192;6.048;2023-03-04T09:47:33;2.30;;;2.20;;
6785;SDS011;3430;51.192;6.048;2023-03-04T09:50:00;1.93;;;1.83;;
6785;SDS011;3430;51.192;6.048;2023-03-04T09:55:05;4.67;;;2.43;;
6785;SDS011;3430;51.192;6.048;2023-03-04T10:02:43;2.97;;;2.00;;
6785;SDS011;3430;51.192;6.048;2023-03-04T10:05:09;4.27;;;2.60;;
6785;SDS011;3430;51.192;6.048;2023-03-04T10:07:37;4.17;;;2.63;;
6785;SDS011;3430;51.192;6.048;2023-03-04T10:10:28;2.73;;;2.10;;
6785;SDS011;3430;51.192;6.048;2023-03-04T10:12:54;2.30;;;2.10;;
6785;SDS011;3430;51.192;6.048;2023-03-04T10:15:42;3.33;;;2.30;;
6785;SDS011;3430;51.192;6.048;2023-03-04T10:20:43;5.23;;;2.40;;
6785;SDS011;3430;51.192;6.048;2023-03-04T10:23:14;3.30;;;2.40;;
6785;SDS011;3430;51.192;6.048;2023-03-04T10:25:42;4.67;;;2.47;;
6785;SDS011;3430;51.192;6.048;2023-03-04T10:28:14;3.87;;;2.23;;
6785;SDS011;3430;51.192;6.048;2023-03-04T10:33:19;3.67;;;2.20;;
6785;SDS011;3430;51.192;6.048;2023-03-04T10:35:46;2.53;;;2.33;;
6785;SDS011;3430;51.192;6.048;2023-03-04T10:38:12;2.60;;;2.40;;
6785;SDS011;3430;51.192;6.048;2023-03-04T10:40:38;3.10;;;1.80;;
6785;SDS011;3430;51.192;6.048;2023-03-04T10:43:04;2.77;;;2.37;;
6785;SDS011;3430;51.192;6.048;2023-03-04T10:45:37;2.30;;;2.10;;
6785;SDS011;3430;51.192;6.048;2023-03-04T10:48:02;5.03;;;2.20;;
6785;SDS011;3430;51.192;6.048;2023-03-04T10:50:28;6.20;;;2.80;;
6785;SDS011;3430;51.192;6.048;2023-03-04T10:52:54;5.90;;;2.67;;
6785;SDS011;3430;51.192;6.048;2023-03-04T10:55:29;3.07;;;2.10;;
6785;SDS011;3430;51.192;6.048;2023-03-04T10:58:05;2.53;;;2.33;;
6785;SDS011;3430;51.192;6.048;2023-03-04T11:00:35;7.30;;;2.33;;
6785;SDS011;3430;51.192;6.048;2023-03-04T11:05:44;3.13;;;2.20;;
6785;SDS011;3430;51.192;6.048;2023-03-04T11:08:22;3.23;;;2.57;;
6785;SDS011;3430;51.192;6.048;2023-03-04T11:10:48;2.93;;;2.10;;
6785;SDS011;3430;51.192;6.048;2023-03-04T11:18:13;6.10;;;2.17;;
6785;SDS011;3430;51.192;6.048;2023-03-04T11:20:44;2.20;;;2.10;;
6785;SDS011;3430;51.192;6.048;2023-03-04T11:23:21;3.03;;;2.00;;
6785;SDS011;3430;51.192;6.048;2023-03-04T11:25:50;2.20;;;2.10;;
6785;SDS011;3430;51.192;6.048;2023-03-04T11:28:21;2.23;;;2.07;;
6785;SDS011;3430;51.192;6.048;2023-03-04T11:30:56;4.37;;;2.10;;
6785;SDS011;3430;51.192;6.048;2023-03-04T11:35:53;2.40;;;2.20;;
6785;SDS011;3430;51.192;6.048;2023-03-04T11:38:41;2.33;;;2.00;;
6785;SDS011;3430;51.192;6.048;2023-03-04T11:41:12;3.23;;;2.10;;
6785;SDS011;3430;51.192;6.048;2023-03-04T11:43:39;2.10;;;2.00;;
6785;SDS011;3430;51.192;6.048;2023-03-04T11:56:26;2.50;;;2.30;;
6785;SDS011;3430;51.192;6.048;2023-03-04T12:12:34;2.60;;;2.40;;
6785;SDS011;3430;51.192;6.048;2023-03-04T12:17:23;2.53;;;2.00;;
6785;SDS011;3430;51.192;6.048;2023-03-04T12:27:38;2.40;;;2.20;;
6785;SDS011;3430;51.192;6.048;2023-03-04T12:48:26;3.10;;;2.10;;
6785;SDS011;3430;51.192;6.048;2023-03-04T12:53:35;2.57;;;2.33;;
6785;SDS011;3430;51.192;6.048;2023-03-04T12:56:03;4.23;;;2.50;;
6785;SDS011;3430;51.192;6.048;2023-03-04T12:58:29;3.03;;;2.30;;
6785;SDS011;3430;51.192;6.048;2023-03-04T13:01:08;4.30;;;2.70;;
6785;SDS011;3430;51.192;6.048;2023-03-04T13:03:39;3.20;;;2.40;;
6785;SDS011;3430;51.192;6.048;2023-03-04T13:14:03;8.13;;;3.10;;
6785;SDS011;3430;51.192;6.048;2023-03-04T13:16:39;3.37;;;2.80;;
6785;SDS011;3430;51.192;6.048;2023-03-04T13:21:49;5.17;;;2.90;;
6785;SDS011;3430;51.192;6.048;2023-03-04T13:27:42;3.17;;;2.80;;
6785;SDS011;3430;51.192;6.048;2023-03-04T13:29:47;4.13;;;2.90;;
6785;SDS011;3430;51.192;6.048;2023-03-04T13:32:13;3.63;;;3.30;;
6785;SDS011;3430;51.192;6.048;2023-03-04T13:34:58;4.47;;;3.33;;
6785;SDS011;3430;51.192;6.048;2023-03-04T13:37:31;5.53;;;3.73;;
6785;SDS011;3430;51.192;6.048;2023-03-04T13:42:41;3.80;;;3.20;;
6785;SDS011;3430;51.192;6.048;2023-03-04T13:45:52;4.13;;;3.77;;
6785;SDS011;3430;51.192;6.048;2023-03-04T13:47:52;5.47;;;3.53;;
6785;SDS011;3430;51.192;6.048;2023-03-04T13:50:30;6.33;;;3.50;;
6785;SDS011;3430;51.192;6.048;2023-03-04T13:53:18;8.87;;;4.20;;
6785;SDS011;3430;51.192;6.048;2023-03-04T13:55:42;7.00;;;3.70;;
6785;SDS011;3430;51.192;6.048;2023-03-04T13:58:16;4.00;;;3.23;;
6785;SDS011;3430;51.192;6.048;2023-03-04T14:00:46;4.83;;;3.93;;
6785;SDS011;3430;51.192;6.048;2023-03-04T14:03:16;6.33;;;4.27;;
6785;SDS011;3430;51.192;6.048;2023-03-04T14:05:43;5.50;;;4.20;;
6785;SDS011;3430;51.192;6.048;2023-03-04T14:08:18;5.17;;;4.23;;
6785;SDS011;3430;51.192;6.048;2023-03-04T14:10:44;6.97;;;3.70;;
6785;SDS011;3430;51.192;6.048;2023-03-04T14:13:09;8.67;;;3.60;;
6785;SDS011;3430;51.192;6.048;2023-03-04T14:15:35;5.17;;;4.40;;
6785;SDS011;3430;51.192;6.048;2023-03-04T14:18:02;7.40;;;4.00;;
6785;SDS011;3430;51.192;6.048;2023-03-04T14:20:35;4.50;;;4.10;;
6785;SDS011;3430;51.192;6.048;2023-03-04T14:23:02;6.27;;;3.57;;
6785;SDS011;3430;51.192;6.048;2023-03-04T14:30:28;5.37;;;4.27;;
6785;SDS011;3430;51.192;6.048;2023-03-04T14:32:55;6.30;;;4.30;;
6785;SDS011;3430;51.192;6.048;2023-03-04T14:35:25;12.50;;;4.93;;
6785;SDS011;3430;51.192;6.048;2023-03-04T14:40:26;6.60;;;4.37;;
6785;SDS011;3430;51.192;6.048;2023-03-04T14:42:56;8.07;;;4.13;;
6785;SDS011;3430;51.192;6.048;2023-03-04T14:45:25;6.57;;;4.13;;
6785;SDS011;3430;51.192;6.048;2023-03-04T14:47:51;4.63;;;3.83;;
6785;SDS011;3430;51.192;6.048;2023-03-04T14:50:19;5.07;;;3.87;;
6785;SDS011;3430;51.192;6.048;2023-03-04T14:52:45;7.47;;;4.37;;
6785;SDS011;3430;51.192;6.048;2023-03-04T14:57:40;6.20;;;4.43;;
6785;SDS011;3430;51.192;6.048;2023-03-04T15:02:40;6.93;;;4.73;;
6785;SDS011;3430;51.192;6.048;2023-03-04T15:07:40;6.53;;;4.37;;
6785;SDS011;3430;51.192;6.048;2023-03-04T15:10:07;7.53;;;4.40;;
6785;SDS011;3430;51.192;6.048;2023-03-04T15:12:34;7.53;;;4.70;;
6785;SDS011;3430;51.192;6.048;2023-03-04T15:15:01;9.57;;;5.00;;
6785;SDS011;3430;51.192;6.048;2023-03-04T15:17:28;7.13;;;5.17;;
6785;SDS011;3430;51.192;6.048;2023-03-04T15:19:59;7.83;;;5.03;;
6785;SDS011;3430;51.192;6.048;2023-03-04T15:22:24;7.53;;;5.03;;
6785;SDS011;3430;51.192;6.048;2023-03-04T15:24:50;9.80;;;5.40;;
6785;SDS011;3430;51.192;6.048;2023-03-04T15:27:15;5.83;;;4.47;;
6785;SDS011;3430;51.192;6.048;2023-03-04T15:29:41;7.47;;;4.97;;
6785;SDS011;3430;51.192;6.048;2023-03-04T15:32:08;9.80;;;5.80;;
6785;SDS011;3430;51.192;6.048;2023-03-04T15:34:34;7.13;;;5.43;;
6785;SDS011;3430;51.192;6.048;2023-03-04T15:37:00;7.77;;;4.60;;
6785;SDS011;3430;51.192;6.048;2023-03-04T15:39:25;6.80;;;5.30;;
6785;SDS011;3430;51.192;6.048;2023-03-04T15:41:51;8.10;;;5.50;;
6785;SDS011;3430;51.192;6.048;2023-03-04T15:44:17;8.43;;;5.33;;
6785;SDS011;3430;51.192;6.048;2023-03-04T15:46:42;7.03;;;5.20;;
6785;SDS011;3430;51.192;6.048;2023-03-04T15:49:07;8.47;;;5.43;;
6785;SDS011;3430;51.192;6.048;2023-03-04T15:51:33;8.20;;;4.97;;
6785;SDS011;3430;51.192;6.048;2023-03-04T15:53:58;8.33;;;4.87;;
6785;SDS011;3430;51.192;6.048;2023-03-04T15:56:25;7.10;;;4.97;;
6785;SDS011;3430;51.192;6.048;2023-03-04T15:58:54;9.23;;;5.27;;
6785;SDS011;3430;51.192;6.048;2023-03-04T16:01:20;9.67;;;4.90;;
6785;SDS011;3430;51.192;6.048;2023-03-04T16:03:46;9.07;;;5.50;;
6785;SDS011;3430;51.192;6.048;2023-03-04T16:06:12;8.13;;;5.43;;
6785;SDS011;3430;51.192;6.048;2023-03-04T16:08:38;7.90;;;5.37;;
6785;SDS011;3430;51.192;6.048;2023-03-04T16:11:04;9.97;;;4.90;;
6785;SDS011;3430;51.192;6.048;2023-03-04T16:13:30;8.60;;;5.57;;
6785;SDS011;3430;51.192;6.048;2023-03-04T16:15:55;7.67;;;5.53;;
6785;SDS011;3430;51.192;6.048;2023-03-04T16:18:21;9.13;;;5.37;;
6785;SDS011;3430;51.192;6.048;2023-03-04T16:20:47;8.87;;;5.50;;
6785;SDS011;3430;51.192;6.048;2023-03-04T16:23:14;8.00;;;5.33;;
6785;SDS011;3430;51.192;6.048;2023-03-04T16:25:44;7.70;;;5.13;;
6785;SDS011;3430;51.192;6.048;2023-03-04T16:28:09;9.57;;;5.00;;
6785;SDS011;3430;51.192;6.048;2023-03-04T16:30:35;11.23;;;5.60;;
6785;SDS011;3430;51.192;6.048;2023-03-04T16:33:00;8.93;;;5.13;;
6785;SDS011;3430;51.192;6.048;2023-03-04T16:35:25;8.67;;;5.83;;
6785;SDS011;3430;51.192;6.048;2023-03-04T16:37:53;7.53;;;5.20;;
6785;SDS011;3430;51.192;6.048;2023-03-04T16:40:19;6.97;;;5.13;;
6785;SDS011;3430;51.192;6.048;2023-03-04T16:42:47;7.27;;;5.40;;
6785;SDS011;3430;51.192;6.048;2023-03-04T16:45:20;10.77;;;5.97;;
6785;SDS011;3430;51.192;6.048;2023-03-04T16:47:45;6.37;;;4.67;;
6785;SDS011;3430;51.192;6.048;2023-03-04T16:50:12;9.87;;;4.93;;
6785;SDS011;3430;51.192;6.048;2023-03-04T16:52:37;9.33;;;6.23;;
6785;SDS011;3430;51.192;6.048;2023-03-04T16:55:03;8.97;;;5.17;;
6785;SDS011;3430;51.192;6.048;2023-03-04T16:57:28;12.40;;;5.90;;
6785;SDS011;3430;51.192;6.048;2023-03-04T16:59:55;10.40;;;5.27;;
6785;SDS011;3430;51.192;6.048;2023-03-04T17:02:22;8.20;;;5.47;;
6785;SDS011;3430;51.192;6.048;2023-03-04T17:04:50;7.50;;;4.67;;
6785;SDS011;3430;51.192;6.048;2023-03-04T17:07:16;7.57;;;5.27;;
6785;SDS011;3430;51.192;6.048;2023-03-04T17:09:42;6.17;;;5.03;;